Time;durP1;ratioP1;P1;durP2;ratioP2;P2;SDS_P1;SDS_P2;PMS_P1;PMS_P2;Temp;Humidity;BMP_temperature;BMP_pressure;BME280_temperature;BME280_humidity;BME280_pressure;Samples;Min_cycle;Max_cycle;Signal;HPM_P1;HPM_P2
2021/06/19 00:02:07;;;;;;;8.87;8.07;;;24.20;99.90;;;;;;5114485;28;20200;-65
2021/06/19 00:04:34;;;;;;;11.53;8.20;;;24.10;99.90;;;;;;5114531;28;20560;-65
2021/06/19 00:07:01;;;;;;;8.40;7.70;;;24.20;99.90;;;;;;5114360;28;20423;-68
2021/06/19 00:09:26;;;;;;;8.77;7.90;;;24.20;99.90;;;;;;5114425;28;20466;-68
2021/06/19 00:11:52;;;;;;;8.40;7.10;;;24.20;99.90;;;;;;5113021;28;20926;-68
2021/06/19 00:14:18;;;;;;;9.67;8.70;;;24.20;99.90;;;;;;5114107;28;20267;-66
2021/06/19 00:16:44;;;;;;;9.57;8.77;;;24.10;99.90;;;;;;5112892;28;20521;-68
2021/06/19 00:19:10;;;;;;;10.47;8.80;;;24.10;99.90;;;;;;5112984;28;20463;-68
2021/06/19 00:21:36;;;;;;;12.30;8.30;;;24.00;99.90;;;;;;5112897;28;20508;-65
2021/06/19 00:24:02;;;;;;;9.67;8.67;;;23.80;99.90;;;;;;5114028;28;20236;-68
2021/06/19 00:26:28;;;;;;;12.07;8.90;;;23.80;99.90;;;;;;5095880;28;20455;-65
2021/06/19 00:28:53;;;;;;;9.47;8.53;;;23.80;99.90;;;;;;5113101;28;20441;-65
2021/06/19 00:31:19;;;;;;;8.70;7.90;;;23.70;99.90;;;;;;5112852;28;20193;-70
2021/06/19 00:33:45;;;;;;;10.20;9.20;;;23.60;99.90;;;;;;5114532;28;20212;-65
2021/06/19 00:36:10;;;;;;;9.30;8.50;;;23.70;99.90;;;;;;5114193;28;20211;-65
2021/06/19 00:38:36;;;;;;;9.43;8.53;;;23.70;99.90;;;;;;5113014;28;20185;-65
2021/06/19 00:41:02;;;;;;;9.50;8.60;;;23.80;99.90;;;;;;5112690;28;20264;-65
2021/06/19 00:43:27;;;;;;;10.37;8.50;;;23.90;99.90;;;;;;5113004;28;20571;-65
2021/06/19 00:45:53;;;;;;;11.50;9.20;;;24.00;99.90;;;;;;5113445;28;20447;-68
2021/06/19 00:48:19;;;;;;;8.53;7.83;;;24.00;99.90;;;;;;5113303;28;20216;-66
2021/06/19 00:50:44;;;;;;;9.47;8.40;;;23.90;99.90;;;;;;5112576;28;20197;-66
2021/06/19 00:53:10;;;;;;;11.47;8.70;;;23.80;99.90;;;;;;5112808;28;20185;-67
2021/06/19 00:55:36;;;;;;;10.43;9.40;;;23.70;99.90;;;;;;5113851;28;20207;-68
2021/06/19 00:58:03;;;;;;;9.87;8.77;;;23.40;99.90;;;;;;5114065;28;20657;-69
2021/06/19 01:00:29;;;;;;;11.13;9.10;;;23.50;99.90;;;;;;5112542;28;20569;-68
2021/06/19 01:02:58;;;;;;;12.60;8.50;;;23.40;99.90;;;;;;5113932;28;20427;-65
2021/06/19 01:05:26;;;;;;;9.93;8.93;;;23.50;99.90;;;;;;5110812;28;20436;-65
2021/06/19 01:07:52;;;;;;;9.70;8.80;;;23.60;99.90;;;;;;5111824;28;20789;-68
2021/06/19 01:10:18;;;;;;;10.10;9.30;;;23.50;99.90;;;;;;5112570;28;20444;-68
2021/06/19 01:12:46;;;;;;;11.90;9.40;;;23.40;99.90;;;;;;5113928;28;20416;-66
2021/06/19 01:15:12;;;;;;;12.37;9.70;;;23.30;99.90;;;;;;5112372;28;20279;-66
2021/06/19 01:17:38;;;;;;;11.00;9.33;;;23.30;99.90;;;;;;5113429;28;20416;-67
2021/06/19 01:20:06;;;;;;;10.07;9.00;;;23.40;99.90;;;;;;5113564;28;20897;-65
2021/06/19 01:22:32;;;;;;;10.77;9.30;;;23.40;99.90;;;;;;5111775;28;20591;-69
2021/06/19 01:24:59;;;;;;;9.30;8.40;;;23.40;99.90;;;;;;5111634;28;20559;-68
2021/06/19 01:27:30;;;;;;;10.10;9.10;;;23.30;99.90;;;;;;5114669;28;20518;-65
2021/06/19 01:29:57;;;;;;;9.97;9.00;;;23.20;99.90;;;;;;5113968;28;20396;-65
2021/06/19 01:32:26;;;;;;;10.80;9.00;;;23.00;99.90;;;;;;5115324;28;20440;-66
2021/06/19 01:34:52;;;;;;;9.80;8.90;;;23.10;99.90;;;;;;5113904;28;20418;-67
2021/06/19 01:37:17;;;;;;;10.43;9.53;;;23.20;99.90;;;;;;5114447;28;20916;-65
2021/06/19 01:39:43;;;;;;;11.57;10.43;;;23.20;99.90;;;;;;5115050;28;20176;-66
2021/06/19 01:42:09;;;;;;;10.43;9.43;;;23.10;99.90;;;;;;5115029;28;20194;-65
2021/06/19 01:44:35;;;;;;;10.37;9.33;;;23.20;99.90;;;;;;5114919;28;20588;-68
2021/06/19 01:47:00;;;;;;;9.77;8.67;;;23.10;99.90;;;;;;5114882;28;20451;-65
2021/06/19 01:49:36;;;;;;;10.73;9.73;;;23.20;99.90;;;;;;5115183;28;20172;-68
2021/06/19 01:52:04;;;;;;;12.87;9.50;;;23.10;99.90;;;;;;5114996;28;20195;-65
2021/06/19 01:54:38;;;;;;;11.37;9.10;;;23.10;99.90;;;;;;5115077;28;20427;-69
2021/06/19 01:57:07;;;;;;;11.30;9.33;;;23.10;99.90;;;;;;5115875;28;20446;-65
2021/06/19 01:59:33;;;;;;;10.67;9.53;;;23.10;99.90;;;;;;5116942;28;20413;-66
2021/06/19 02:02:00;;;;;;;11.50;9.53;;;23.10;99.90;;;;;;5116795;28;20921;-68
2021/06/19 02:04:26;;;;;;;11.43;9.60;;;23.00;99.90;;;;;;5115409;28;20459;-69
2021/06/19 02:06:52;;;;;;;10.33;9.33;;;23.00;99.90;;;;;;5116643;28;20431;-68
2021/06/19 02:09:18;;;;;;;11.00;9.03;;;23.00;99.90;;;;;;5116795;28;20765;-67
2021/06/19 02:11:44;;;;;;;10.37;9.47;;;22.90;99.90;;;;;;5116520;28;20412;-65
2021/06/19 02:14:15;;;;;;;10.60;9.70;;;23.00;99.90;;;;;;5116513;28;20404;-68
2021/06/19 02:16:41;;;;;;;10.90;9.77;;;23.00;99.90;;;;;;5115202;28;20191;-65
2021/06/19 02:19:07;;;;;;;10.80;8.87;;;23.00;99.90;;;;;;5116476;28;20412;-65
2021/06/19 02:21:33;;;;;;;10.33;9.43;;;22.80;99.90;;;;;;5116401;28;20466;-65
2021/06/19 02:23:58;;;;;;;10.60;9.60;;;22.90;99.90;;;;;;5116148;28;20476;-65
2021/06/19 02:26:24;;;;;;;10.20;9.30;;;22.70;99.90;;;;;;5114984;28;20223;-68
2021/06/19 02:28:50;;;;;;;11.40;9.93;;;22.70;99.90;;;;;;5115160;28;20186;-65
2021/06/19 02:31:16;;;;;;;11.43;10.23;;;22.80;99.90;;;;;;5116339;28;20199;-65
2021/06/19 02:33:43;;;;;;;11.57;9.47;;;22.80;99.90;;;;;;5116688;27;20228;-65
2021/06/19 02:36:09;;;;;;;11.53;10.40;;;22.70;99.90;;;;;;5116039;28;20424;-65
2021/06/19 02:38:35;;;;;;;11.37;10.20;;;22.60;99.90;;;;;;5116305;28;20928;-68
2021/06/19 02:41:53;;;;;;;11.37;10.17;;;22.60;99.90;;;;;;5116020;28;20207;-68
2021/06/19 02:44:18;;;;;;;12.43;10.17;;;22.50;99.90;;;;;;5115905;28;20261;-65
2021/06/19 02:46:44;;;;;;;11.33;10.10;;;22.50;99.90;;;;;;5115846;28;20909;-67
2021/06/19 02:49:09;;;;;;;12.23;9.67;;;22.40;99.90;;;;;;5115892;28;20179;-68
2021/06/19 02:51:35;;;;;;;11.33;10.07;;;22.50;99.90;;;;;;5115796;28;20194;-69
2021/06/19 02:54:01;;;;;;;10.97;9.87;;;22.50;99.90;;;;;;5114673;28;20180;-66
2021/06/19 02:56:26;;;;;;;11.80;9.80;;;22.50;99.90;;;;;;5115874;28;20199;-65
2021/06/19 02:58:52;;;;;;;12.13;10.80;;;22.50;99.90;;;;;;5114598;28;20220;-65
2021/06/19 03:01:17;;;;;;;11.40;10.10;;;22.50;99.90;;;;;;5115594;28;20184;-67
2021/06/19 03:03:43;;;;;;;11.40;9.03;;;22.50;99.90;;;;;;5116007;28;20212;-65
2021/06/19 03:06:08;;;;;;;13.10;10.87;;;22.50;99.90;;;;;;5115484;28;20278;-65
2021/06/19 03:08:34;;;;;;;11.37;10.23;;;22.50;99.90;;;;;;5115970;28;20175;-65
2021/06/19 03:11:00;;;;;;;10.77;9.20;;;22.50;99.90;;;;;;5115357;27;20620;-65
2021/06/19 03:13:26;;;;;;;11.77;10.50;;;22.50;99.90;;;;;;5115867;28;20182;-65
2021/06/19 03:15:51;;;;;;;12.83;10.40;;;22.50;99.90;;;;;;5115398;28;20641;-65
2021/06/19 03:18:17;;;;;;;11.20;10.20;;;22.50;99.90;;;;;;5114277;28;20179;-65
2021/06/19 03:20:42;;;;;;;11.73;10.63;;;22.60;99.90;;;;;;5115287;28;20188;-68
2021/06/19 03:23:08;;;;;;;11.33;10.03;;;22.60;99.90;;;;;;5114888;28;20235;-65
2021/06/19 03:25:35;;;;;;;11.33;10.17;;;22.50;99.90;;;;;;5115194;28;20590;-69
2021/06/19 03:28:03;;;;;;;11.23;10.13;;;22.40;99.90;;;;;;5115377;28;20186;-65
2021/06/19 03:30:31;;;;;;;11.13;9.90;;;22.40;99.90;;;;;;5113760;28;20434;-68
2021/06/19 03:32:57;;;;;;;11.53;10.30;;;22.40;99.90;;;;;;5115352;28;20498;-68
2021/06/19 03:35:23;;;;;;;11.57;10.40;;;22.40;99.90;;;;;;5115028;28;20520;-67
2021/06/19 03:37:50;;;;;;;12.13;10.83;;;22.40;99.90;;;;;;5115135;28;20415;-68
2021/06/19 03:40:17;;;;;;;15.53;10.83;;;22.40;99.90;;;;;;5114950;28;20443;-68
2021/06/19 03:42:44;;;;;;;11.03;9.93;;;22.50;99.90;;;;;;5113627;28;20435;-65
2021/06/19 03:45:11;;;;;;;13.03;9.90;;;22.50;99.90;;;;;;5114770;28;20420;-69
2021/06/19 03:47:39;;;;;;;13.10;10.97;;;22.60;99.90;;;;;;5114977;28;20767;-65
2021/06/19 03:50:13;;;;;;;11.83;10.70;;;22.60;99.90;;;;;;5114131;28;20615;-68
2021/06/19 03:52:38;;;;;;;11.97;10.77;;;22.70;99.90;;;;;;5113514;28;20804;-66
2021/06/19 03:55:06;;;;;;;12.10;10.77;;;22.70;99.90;;;;;;5113289;28;20412;-68
2021/06/19 03:57:32;;;;;;;11.30;10.30;;;22.80;99.90;;;;;;5114754;28;20236;-65
2021/06/19 03:59:58;;;;;;;10.70;9.70;;;22.90;99.90;;;;;;5114519;28;20424;-68
2021/06/19 04:02:25;;;;;;;11.70;10.60;;;22.70;99.90;;;;;;5114789;28;20423;-65
2021/06/19 04:04:51;;;;;;;10.13;9.13;;;22.70;99.90;;;;;;5113156;28;20467;-68
2021/06/19 04:07:18;;;;;;;11.53;10.37;;;22.70;99.90;;;;;;5114560;28;20487;-68
2021/06/19 04:09:45;;;;;;;11.80;10.70;;;22.70;99.90;;;;;;5114466;28;20765;-69
2021/06/19 04:12:11;;;;;;;11.83;10.73;;;22.80;99.90;;;;;;5113163;28;20444;-68
2021/06/19 04:14:37;;;;;;;11.30;10.30;;;22.90;99.90;;;;;;5114404;28;20495;-65
2021/06/19 04:17:03;;;;;;;10.50;9.50;;;22.90;99.90;;;;;;5114272;28;20219;-68
2021/06/19 04:19:28;;;;;;;13.73;10.43;;;23.00;99.90;;;;;;5114328;28;20167;-68
2021/06/19 04:21:54;;;;;;;12.93;11.00;;;23.00;99.90;;;;;;5113939;28;20905;-68
2021/06/19 04:24:20;;;;;;;11.83;10.63;;;23.00;99.90;;;;;;5112955;28;20211;-68
2021/06/19 04:26:45;;;;;;;10.50;9.50;;;23.00;99.90;;;;;;5114086;28;20671;-68
2021/06/19 04:29:11;;;;;;;11.83;10.60;;;23.10;99.90;;;;;;5114243;28;20190;-66
2021/06/19 04:31:36;;;;;;;13.80;10.97;;;23.20;99.90;;;;;;5114471;28;20198;-66
2021/06/19 04:34:02;;;;;;;11.70;10.23;;;23.20;99.90;;;;;;5114645;28;20662;-67
2021/06/19 04:36:28;;;;;;;12.67;10.40;;;23.30;99.90;;;;;;5114226;28;20219;-65
2021/06/19 04:38:54;;;;;;;11.70;10.60;;;23.30;99.90;;;;;;5113996;28;20209;-65
2021/06/19 04:44:07;;;;;;;13.30;11.87;;;23.50;99.90;;;;;;5114448;28;20494;-65
2021/06/19 04:46:32;;;;;;;11.60;10.40;;;23.50;99.90;;;;;;5114061;28;20463;-65
2021/06/19 04:48:58;;;;;;;13.70;11.20;;;23.40;99.90;;;;;;5114598;28;20404;-68
2021/06/19 04:51:23;;;;;;;14.53;10.80;;;23.50;99.90;;;;;;5114174;28;20202;-68
2021/06/19 04:53:52;;;;;;;13.37;11.90;;;23.60;99.90;;;;;;5114401;28;20177;-68
2021/06/19 04:56:18;;;;;;;12.50;11.50;;;23.70;99.90;;;;;;5112666;28;20688;-65
2021/06/19 04:58:45;;;;;;;10.80;9.80;;;23.70;99.90;;;;;;5112909;28;20417;-68
2021/06/19 05:01:11;;;;;;;11.87;10.77;;;23.90;99.90;;;;;;5115277;28;20284;-65
2021/06/19 05:03:36;;;;;;;11.80;10.70;;;23.90;99.90;;;;;;5116756;28;20562;-65
2021/06/19 05:06:02;;;;;;;12.87;11.67;;;24.00;99.90;;;;;;5116587;28;20196;-65
2021/06/19 05:08:27;;;;;;;11.93;10.73;;;24.10;99.90;;;;;;5118325;28;20564;-65
2021/06/19 05:10:53;;;;;;;13.60;10.33;;;24.30;99.90;;;;;;5117757;27;20196;-69
2021/06/19 05:13:18;;;;;;;10.97;9.87;;;24.60;99.90;;;;;;5116649;28;20183;-69
2021/06/19 05:15:44;;;;;;;11.20;10.20;;;24.70;99.90;;;;;;5117730;27;20202;-68
2021/06/19 05:18:10;;;;;;;12.37;11.23;;;24.60;99.90;;;;;;5117927;28;20238;-65
2021/06/19 05:20:35;;;;;;;11.80;10.53;;;24.90;99.90;;;;;;5117531;28;20196;-68
2021/06/19 05:23:08;;;;;;;12.53;11.43;;;24.90;99.90;;;;;;5117228;28;20225;-68
2021/06/19 05:25:33;;;;;;;11.53;10.53;;;25.10;99.90;;;;;;5116552;28;20570;-68
2021/06/19 05:27:59;;;;;;;10.83;9.70;;;25.10;99.90;;;;;;5117661;28;20421;-68
2021/06/19 05:30:24;;;;;;;12.80;10.10;;;25.10;99.90;;;;;;5117386;28;20197;-69
2021/06/19 05:32:50;;;;;;;11.40;9.90;;;25.00;99.90;;;;;;5117647;28;20181;-65
2021/06/19 05:35:16;;;;;;;11.30;10.33;;;25.00;99.90;;;;;;5117445;28;20650;-68
2021/06/19 05:37:41;;;;;;;10.40;9.40;;;24.90;99.90;;;;;;5116226;28;20181;-65
2021/06/19 05:40:08;;;;;;;10.10;9.03;;;25.10;99.90;;;;;;5117255;27;20263;-66
2021/06/19 05:42:34;;;;;;;11.13;10.03;;;25.40;99.90;;;;;;5115839;28;20647;-65
2021/06/19 05:44:59;;;;;;;13.23;9.93;;;25.40;99.90;;;;;;5117009;28;20537;-65
2021/06/19 05:47:25;;;;;;;10.80;9.77;;;25.50;99.90;;;;;;5117229;28;20182;-68
2021/06/19 05:49:50;;;;;;;12.37;11.27;;;25.60;99.90;;;;;;5115740;28;20619;-68
2021/06/19 05:52:16;;;;;;;10.57;9.57;;;25.40;99.90;;;;;;5116628;28;20191;-65
2021/06/19 05:54:42;;;;;;;11.27;9.93;;;25.40;99.90;;;;;;5116348;28;20631;-65
2021/06/19 05:57:08;;;;;;;10.80;9.23;;;25.20;99.90;;;;;;5115809;28;20464;-67
2021/06/19 05:59:36;;;;;;;11.20;10.30;;;25.40;99.90;;;;;;5116738;28;20209;-65
2021/06/19 06:02:03;;;;;;;10.17;9.10;;;25.70;99.90;;;;;;5116365;27;20451;-65
2021/06/19 06:04:33;;;;;;;10.20;9.13;;;25.80;99.90;;;;;;5105459;28;20478;-65
2021/06/19 06:06:59;;;;;;;13.50;9.60;;;25.70;99.90;;;;;;5116586;28;20967;-68
2021/06/19 06:09:25;;;;;;;10.63;9.63;;;25.80;99.90;;;;;;5116728;28;20450;-66
2021/06/19 06:11:50;;;;;;;10.60;9.70;;;25.70;99.90;;;;;;5116042;28;20435;-69
2021/06/19 06:14:16;;;;;;;10.03;9.13;;;26.10;99.90;;;;;;5115303;28;20264;-67
2021/06/19 06:16:41;;;;;;;11.30;9.60;;;26.40;99.90;;;;;;5115173;28;20213;-65
2021/06/19 06:19:07;;;;;;;10.17;9.17;;;26.50;99.90;;;;;;5115179;28;20179;-68
2021/06/19 06:21:33;;;;;;;13.70;10.80;;;26.30;99.90;;;;;;5115097;28;20205;-65
2021/06/19 06:23:59;;;;;;;10.50;9.60;;;26.30;99.90;;;;;;5116251;27;20478;-65
2021/06/19 06:26:24;;;;;;;9.53;8.83;;;26.50;99.90;;;;;;5116319;28;20426;-67
2021/06/19 06:28:50;;;;;;;10.50;9.50;;;26.30;99.90;;;;;;5115193;28;20693;-65
2021/06/19 06:31:16;;;;;;;11.43;10.17;;;26.60;99.90;;;;;;5115901;28;20184;-68
2021/06/19 06:33:41;;;;;;;11.17;10.07;;;26.80;99.90;;;;;;5113239;28;20214;-65
2021/06/19 06:36:07;;;;;;;10.60;9.60;;;26.70;99.90;;;;;;5113730;28;20952;-68
2021/06/19 06:38:33;;;;;;;11.70;10.30;;;26.90;99.90;;;;;;5114381;28;20207;-70
2021/06/19 06:40:58;;;;;;;11.03;10.17;;;26.90;99.90;;;;;;5112883;28;20194;-65
2021/06/19 06:43:24;;;;;;;11.67;10.47;;;26.60;99.90;;;;;;5112949;28;20305;-69
2021/06/19 06:45:50;;;;;;;11.67;10.53;;;26.80;99.90;;;;;;5114425;28;20656;-68
2021/06/19 06:48:15;;;;;;;11.40;10.07;;;26.80;99.90;;;;;;5113174;28;20274;-67
2021/06/19 06:50:41;;;;;;;10.63;9.53;;;26.80;99.90;;;;;;5114782;28;20195;-65
2021/06/19 06:53:07;;;;;;;10.47;9.57;;;27.30;99.90;;;;;;5115504;28;20184;-67
2021/06/19 06:55:33;;;;;;;10.57;8.83;;;27.40;99.90;;;;;;5115440;28;20187;-67
2021/06/19 06:57:59;;;;;;;11.97;10.03;;;27.60;99.90;;;;;;5116069;27;20179;-68
2021/06/19 07:00:24;;;;;;;12.63;9.47;;;27.30;99.90;;;;;;5115655;28;20194;-65
2021/06/19 07:02:50;;;;;;;10.07;9.20;;;27.30;99.90;;;;;;5114472;28;20180;-68
2021/06/19 07:05:16;;;;;;;10.97;9.87;;;27.30;99.90;;;;;;5115599;28;20202;-67
2021/06/19 07:07:41;;;;;;;11.57;9.80;;;27.60;99.90;;;;;;5114277;28;20205;-69
2021/06/19 07:10:11;;;;;;;12.00;9.93;;;27.60;99.90;;;;;;5114611;27;20199;-65
2021/06/19 07:12:41;;;;;;;10.83;8.87;;;27.70;99.90;;;;;;5122655;27;20270;-65
2021/06/19 07:15:08;;;;;;;13.33;9.77;;;28.00;99.90;;;;;;5114881;28;20435;-65
2021/06/19 07:17:34;;;;;;;9.70;8.80;;;28.10;99.90;;;;;;5115456;28;20519;-69
2021/06/19 07:20:02;;;;;;;10.40;9.50;;;28.00;99.90;;;;;;5115211;28;20431;-65
2021/06/19 07:22:27;;;;;;;10.03;8.90;;;28.10;99.90;;;;;;5115014;28;20219;-68
2021/06/19 07:24:53;;;;;;;10.60;9.63;;;28.30;99.90;;;;;;5114154;27;20452;-68
2021/06/19 07:27:19;;;;;;;13.03;10.40;;;28.40;99.90;;;;;;5115332;28;20524;-65
2021/06/19 07:29:44;;;;;;;10.80;9.70;;;28.50;99.90;;;;;;5114031;28;20255;-66
2021/06/19 07:32:10;;;;;;;9.03;8.33;;;28.50;99.90;;;;;;5115016;28;20213;-65
2021/06/19 07:34:35;;;;;;;9.77;8.77;;;28.50;99.90;;;;;;5113724;28;20545;-69
2021/06/19 07:37:01;;;;;;;9.77;8.97;;;28.60;99.90;;;;;;5114853;28;20211;-65
2021/06/19 07:39:27;;;;;;;8.67;7.90;;;28.60;99.90;;;;;;5114713;28;20172;-66
2021/06/19 07:41:52;;;;;;;10.07;8.73;;;28.50;99.90;;;;;;5114387;28;20208;-68
2021/06/19 07:44:18;;;;;;;8.90;8.10;;;28.60;99.90;;;;;;5113239;27;20220;-68
2021/06/19 07:46:46;;;;;;;8.77;7.97;;;28.60;99.90;;;;;;5113987;28;20203;-65
2021/06/19 07:49:13;;;;;;;8.53;7.67;;;28.90;99.90;;;;;;5113362;28;20183;-65
2021/06/19 07:51:39;;;;;;;9.80;8.90;;;29.00;99.90;;;;;;5114564;28;21013;-65
2021/06/19 07:54:04;;;;;;;9.30;8.30;;;29.10;99.90;;;;;;5114530;28;20408;-65
2021/06/19 07:56:30;;;;;;;10.23;9.13;;;28.90;99.90;;;;;;5113844;28;20444;-65
2021/06/19 07:58:56;;;;;;;8.30;7.50;;;28.80;99.90;;;;;;5112265;28;20452;-69
2021/06/19 08:01:21;;;;;;;8.60;7.80;;;29.00;99.90;;;;;;5114065;28;20710;-65
2021/06/19 08:03:47;;;;;;;10.30;8.10;;;29.00;99.90;;;;;;5116529;27;20210;-65
2021/06/19 08:06:12;;;;;;;9.50;8.20;;;29.20;99.90;;;;;;5117068;27;20204;-67
2021/06/19 08:08:38;;;;;;;9.13;8.33;;;29.50;99.90;;;;;;5114163;28;20181;-66
2021/06/19 08:11:04;;;;;;;8.27;7.63;;;29.60;99.90;;;;;;5114159;28;20275;-68
2021/06/19 08:13:29;;;;;;;9.90;8.90;;;29.70;99.90;;;;;;5116690;27;20313;-68
2021/06/19 08:15:57;;;;;;;10.10;9.30;;;29.80;99.90;;;;;;5126850;27;20201;-65
2021/06/19 08:18:23;;;;;;;9.60;8.50;;;30.00;99.90;;;;;;5113783;27;20279;-65
2021/06/19 08:20:48;;;;;;;8.50;7.70;;;29.90;99.90;;;;;;5113593;27;20459;-65
2021/06/19 08:23:14;;;;;;;8.53;7.77;;;30.00;99.90;;;;;;5112258;28;20529;-65
2021/06/19 08:25:40;;;;;;;7.70;7.00;;;30.10;99.90;;;;;;5113856;28;20252;-68
2021/06/19 08:28:05;;;;;;;7.87;6.90;;;30.20;99.90;;;;;;5114423;28;20200;-68
2021/06/19 08:30:31;;;;;;;7.70;7.10;;;30.20;99.90;;;;;;5115787;28;21005;-65
2021/06/19 08:32:57;;;;;;;6.87;6.27;;;30.20;99.90;;;;;;5114398;28;20181;-65
2021/06/19 08:35:23;;;;;;;9.33;6.70;;;30.30;99.90;;;;;;5131727;27;20202;-68
2021/06/19 08:37:48;;;;;;;9.83;6.83;;;30.30;99.90;;;;;;5124305;27;20397;-69
2021/06/19 08:40:14;;;;;;;7.93;7.03;;;30.30;99.90;;;;;;5117727;28;20203;-69
2021/06/19 08:42:40;;;;;;;7.03;6.37;;;30.30;99.90;;;;;;5112140;28;20582;-68
2021/06/19 08:45:06;;;;;;;10.40;7.10;;;30.40;99.90;;;;;;5112223;28;20228;-68
2021/06/19 08:47:36;;;;;;;7.80;7.10;;;30.50;99.90;;;;;;5113974;28;20227;-68
2021/06/19 08:50:12;;;;;;;6.67;6.03;;;30.50;99.90;;;;;;5115320;28;20416;-65
2021/06/19 08:52:39;;;;;;;7.00;6.40;;;30.60;99.80;;;;;;5113991;28;20485;-68
2021/06/19 08:55:10;;;;;;;7.40;6.53;;;30.40;99.90;;;;;;5119768;28;20427;-68
2021/06/19 08:57:36;;;;;;;14.23;6.23;;;30.40;99.90;;;;;;5112805;28;20406;-68
2021/06/19 09:00:04;;;;;;;7.03;5.73;;;30.40;99.90;;;;;;5125151;27;20399;-65
2021/06/19 09:02:30;;;;;;;8.33;6.00;;;30.30;99.90;;;;;;5119454;28;20754;-65
2021/06/19 09:04:59;;;;;;;6.33;5.77;;;30.50;99.90;;;;;;5127490;27;20583;-65
2021/06/19 09:07:40;;;;;;;5.70;5.27;;;30.70;99.90;;;;;;5127383;27;20214;-69
2021/06/19 09:10:35;;;;;;;6.30;5.80;;;30.90;99.90;;;;;;5126931;27;20433;-65
2021/06/19 09:13:08;;;;;;;5.70;5.17;;;31.00;99.90;;;;;;5148213;27;20430;-68
2021/06/19 09:15:48;;;;;;;6.20;5.63;;;31.30;99.90;;;;;;5115880;28;20518;-68
2021/06/19 09:18:14;;;;;;;6.03;5.43;;;31.30;99.90;;;;;;5110010;28;20443;-69
2021/06/19 09:20:41;;;;;;;6.27;5.77;;;31.50;99.90;;;;;;5109742;28;20448;-65
2021/06/19 09:23:11;;;;;;;8.53;6.97;;;31.50;99.90;;;;;;5111505;28;20474;-68
2021/06/19 09:25:40;;;;;;;6.33;5.70;;;31.50;99.80;;;;;;5132006;27;20424;-68
2021/06/19 09:28:09;;;;;;;6.87;5.90;;;31.60;99.00;;;;;;5113719;28;20512;-67
2021/06/19 09:30:36;;;;;;;7.73;5.50;;;31.40;99.20;;;;;;5118916;28;20533;-68
2021/06/19 09:33:06;;;;;;;7.17;6.50;;;31.20;99.40;;;;;;5111258;28;20530;-68
2021/06/19 09:35:36;;;;;;;6.13;5.63;;;31.20;99.30;;;;;;5112148;28;20536;-65
2021/06/19 09:38:12;;;;;;;6.87;6.17;;;31.30;98.80;;;;;;5113412;28;20415;-68
2021/06/19 09:40:40;;;;;;;6.93;5.60;;;31.40;99.60;;;;;;5110671;28;20529;-65
2021/06/19 09:43:21;;;;;;;6.43;5.90;;;31.50;99.90;;;;;;5111702;28;20446;-65
2021/06/19 09:46:01;;;;;;;5.80;5.30;;;31.60;99.90;;;;;;5109517;28;20537;-69
2021/06/19 09:48:29;;;;;;;6.23;5.60;;;32.00;98.40;;;;;;5114224;28;20439;-65
2021/06/19 09:51:14;;;;;;;6.13;5.47;;;32.20;97.60;;;;;;5114700;27;20474;-69
2021/06/19 09:53:42;;;;;;;7.57;6.10;;;32.00;96.80;;;;;;5111605;28;20443;-66
2021/06/19 09:56:10;;;;;;;6.37;5.63;;;32.10;96.30;;;;;;5112620;27;20991;-68
2021/06/19 09:58:38;;;;;;;6.40;5.90;;;31.70;96.50;;;;;;5114799;27;20441;-67
2021/06/19 10:01:04;;;;;;;5.50;5.10;;;31.70;96.10;;;;;;5126570;27;20738;-65
2021/06/19 10:03:30;;;;;;;6.43;5.93;;;31.90;96.20;;;;;;5093920;28;20780;-65
2021/06/19 10:05:55;;;;;;;6.50;5.90;;;31.90;95.80;;;;;;5094242;28;20195;-65
2021/06/19 10:08:23;;;;;;;5.43;5.00;;;31.60;95.40;;;;;;5094672;28;20629;-65
2021/06/19 10:10:48;;;;;;;5.53;5.13;;;31.80;95.60;;;;;;5094213;28;20683;-65
2021/06/19 10:13:14;;;;;;;5.57;5.07;;;31.90;95.40;;;;;;5094530;28;20545;-67
2021/06/19 10:15:40;;;;;;;6.43;5.83;;;31.90;95.30;;;;;;5094084;28;20252;-65
2021/06/19 10:18:07;;;;;;;5.50;5.10;;;32.00;95.10;;;;;;5096361;28;20219;-69
2021/06/19 10:20:34;;;;;;;7.20;4.80;;;31.90;95.20;;;;;;5096189;28;20431;-67
2021/06/19 10:23:00;;;;;;;5.53;5.00;;;32.20;94.70;;;;;;5095764;28;20965;-66
2021/06/19 10:25:27;;;;;;;5.50;5.10;;;32.00;94.40;;;;;;5095935;28;20427;-65
2021/06/19 10:27:54;;;;;;;5.20;4.73;;;32.00;94.40;;;;;;5096234;28;20425;-67
2021/06/19 10:30:24;;;;;;;7.17;4.63;;;31.90;94.20;;;;;;5095937;28;20771;-67
2021/06/19 10:32:51;;;;;;;5.33;4.67;;;31.90;94.10;;;;;;5128896;27;20799;-65
2021/06/19 10:35:20;;;;;;;4.77;4.37;;;31.90;94.70;;;;;;5095868;28;20418;-65
2021/06/19 10:37:47;;;;;;;4.43;4.00;;;31.90;94.50;;;;;;5096004;28;20509;-65
2021/06/19 10:40:23;;;;;;;4.27;3.97;;;32.00;94.80;;;;;;5095794;28;20428;-67
2021/06/19 10:42:50;;;;;;;4.70;4.30;;;32.00;93.90;;;;;;5096010;28;20418;-67
2021/06/19 10:45:30;;;;;;;4.83;4.50;;;32.10;93.70;;;;;;5095571;28;20470;-65
2021/06/19 10:48:09;;;;;;;5.50;4.77;;;32.10;93.80;;;;;;5094454;28;20444;-67
2021/06/19 10:50:37;;;;;;;5.70;5.10;;;32.20;93.30;;;;;;5095598;28;20789;-65
2021/06/19 10:53:17;;;;;;;5.63;4.67;;;32.00;94.00;;;;;;5097462;28;20435;-68
2021/06/19 10:55:43;;;;;;;4.83;4.13;;;32.20;94.40;;;;;;5101376;28;20449;-65
2021/06/19 10:58:25;;;;;;;3.73;3.43;;;32.10;92.90;;;;;;5115887;28;20427;-66
2021/06/19 11:00:52;;;;;;;4.23;3.80;;;32.00;92.40;;;;;;5113408;28;20206;-69
2021/06/19 11:03:38;;;;;;;4.43;4.13;;;32.10;92.70;;;;;;5115783;28;20426;-65
2021/06/19 11:06:23;;;;;;;4.17;3.83;;;32.00;92.60;;;;;;5114698;28;20435;-65
2021/06/19 11:09:00;;;;;;;4.67;4.23;;;32.10;92.80;;;;;;5114431;28;20435;-67
2021/06/19 11:11:49;;;;;;;4.50;4.20;;;32.00;92.70;;;;;;5115071;28;20416;-66
2021/06/19 11:14:40;;;;;;;4.00;3.70;;;32.10;92.50;;;;;;5089909;27;20504;-65
2021/06/19 11:17:06;;;;;;;3.97;3.70;;;32.00;92.60;;;;;;5112662;28;20471;-66
2021/06/19 11:19:34;;;;;;;4.77;4.37;;;32.00;92.60;;;;;;5115311;28;20448;-68
2021/06/19 11:22:23;;;;;;;4.37;3.90;;;31.90;93.00;;;;;;5114915;28;20440;-67
2021/06/19 11:25:14;;;;;;;4.47;4.10;;;31.90;93.20;;;;;;5115110;28;20546;-65
2021/06/19 11:27:49;;;;;;;4.07;3.60;;;32.00;92.40;;;;;;5115473;28;20431;-65
2021/06/19 11:30:33;;;;;;;5.40;3.67;;;32.20;92.50;;;;;;5115067;28;20517;-67
2021/06/19 11:33:20;;;;;;;4.17;3.77;;;32.20;92.00;;;;;;5115338;28;20924;-65
2021/06/19 11:35:46;;;;;;;4.23;3.80;;;32.00;93.00;;;;;;5115027;28;20447;-67
2021/06/19 11:38:13;;;;;;;6.07;4.37;;;31.90;92.70;;;;;;5115327;28;20422;-65
2021/06/19 11:40:39;;;;;;;4.57;4.17;;;31.90;92.60;;;;;;5114883;28;20790;-65
2021/06/19 11:43:06;;;;;;;4.33;3.93;;;32.00;92.40;;;;;;5115072;28;20447;-65
2021/06/19 11:45:34;;;;;;;4.67;4.30;;;32.00;93.00;;;;;;5114809;28;20424;-65
2021/06/19 11:48:14;;;;;;;4.80;4.40;;;32.00;92.50;;;;;;5115040;28;20843;-65
2021/06/19 11:50:44;;;;;;;5.40;4.87;;;32.00;93.60;;;;;;5114817;28;20419;-67
2021/06/19 11:53:28;;;;;;;4.73;4.43;;;32.00;93.00;;;;;;5114458;28;20431;-67
2021/06/19 11:56:15;;;;;;;4.40;4.00;;;32.20;92.90;;;;;;5113304;28;20941;-65
2021/06/19 11:59:03;;;;;;;3.80;3.60;;;32.20;91.90;;;;;;5114547;28;20420;-69
2021/06/19 12:01:30;;;;;;;4.10;3.80;;;32.20;92.10;;;;;;5113317;28;20515;-65
2021/06/19 12:04:00;;;;;;;3.80;3.53;;;32.20;92.70;;;;;;5114959;28;20520;-66
2021/06/19 12:06:42;;;;;;;5.00;4.60;;;32.20;92.20;;;;;;5114465;28;20416;-65
2021/06/19 12:09:10;;;;;;;4.00;3.80;;;32.10;91.70;;;;;;5112977;28;20491;-65
2021/06/19 12:11:39;;;;;;;4.37;4.00;;;32.20;92.20;;;;;;5112653;28;20975;-69
2021/06/19 12:14:27;;;;;;;4.20;3.90;;;32.00;92.60;;;;;;5114401;28;20769;-65
2021/06/19 12:16:54;;;;;;;4.23;3.73;;;32.30;92.20;;;;;;5114591;28;20786;-67
2021/06/19 12:19:21;;;;;;;8.23;3.77;;;32.40;92.00;;;;;;5113030;28;20453;-66
2021/06/19 12:21:47;;;;;;;4.33;4.03;;;32.40;91.70;;;;;;5114001;28;20439;-65
2021/06/19 12:24:41;;;;;;;4.07;3.67;;;32.50;91.70;;;;;;5112889;28;20519;-65
2021/06/19 12:27:16;;;;;;;4.23;3.93;;;32.50;91.30;;;;;;5113707;28;20250;-67
2021/06/19 12:29:48;;;;;;;3.73;3.53;;;32.60;91.20;;;;;;5114305;28;20433;-68
2021/06/19 12:32:23;;;;;;;4.57;3.70;;;32.30;91.80;;;;;;5112999;28;20835;-65
2021/06/19 12:34:50;;;;;;;4.43;4.03;;;32.60;91.10;;;;;;5114092;28;20414;-65
2021/06/19 12:37:37;;;;;;;3.93;3.53;;;32.40;91.60;;;;;;5114258;28;20412;-68
2021/06/19 12:40:09;;;;;;;3.83;3.57;;;32.50;91.90;;;;;;5113928;28;20467;-65
2021/06/19 12:42:35;;;;;;;4.80;4.03;;;32.50;91.50;;;;;;5114199;28;20423;-69
2021/06/19 12:45:09;;;;;;;9.23;4.10;;;32.30;91.50;;;;;;5113933;28;20463;-67
2021/06/19 12:47:43;;;;;;;4.60;4.20;;;32.30;91.50;;;;;;5112820;28;20220;-67